createdAt,value
2023-01-15T00:02:24.897Z,0.50
2023-01-15T00:04:53.994Z,0.52
2023-01-15T00:07:22.806Z,0.54
2023-01-15T00:09:51.952Z,0.54
2023-01-15T00:12:20.733Z,0.54
2023-01-15T00:14:49.781Z,0.56
2023-01-15T00:17:18.514Z,0.58
2023-01-15T00:19:47.751Z,0.60
2023-01-15T00:22:16.493Z,0.63
2023-01-15T00:25:04.585Z,0.66
2023-01-15T00:27:40.020Z,0.69
2023-01-15T00:30:14.128Z,0.70
2023-01-15T00:32:43.883Z,0.72
2023-01-15T00:35:19.031Z,0.74
2023-01-15T00:37:49.183Z,0.73
2023-01-15T00:40:20.316Z,0.71
2023-01-15T00:42:53.986Z,0.70
2023-01-15T00:45:24.409Z,0.68
2023-01-15T00:47:53.608Z,0.66
2023-01-15T00:50:23.112Z,0.65
2023-01-15T00:52:52.657Z,0.63
2023-01-15T00:55:22.124Z,0.64
2023-01-15T00:57:51.212Z,0.68
2023-01-15T01:00:20.618Z,0.69
2023-01-15T01:02:49.521Z,0.69
2023-01-15T01:05:18.807Z,0.69
2023-01-15T01:07:47.489Z,0.70
2023-01-15T01:10:18.279Z,0.73
2023-01-15T01:12:48.956Z,0.75
2023-01-15T01:15:20.062Z,0.75
2023-01-15T01:17:49.390Z,0.75
2023-01-15T01:20:19.759Z,0.77
2023-01-15T01:22:50.417Z,0.78
2023-01-15T01:25:20.058Z,0.77
2023-01-15T01:27:49.099Z,0.76
2023-01-15T01:30:20.476Z,0.76
2023-01-15T01:32:49.621Z,0.77
2023-01-15T01:35:19.011Z,0.78
2023-01-15T01:37:54.559Z,0.78
2023-01-15T01:40:25.093Z,0.77
2023-01-15T01:42:54.198Z,0.75
2023-01-15T01:45:28.752Z,0.75
2023-01-15T01:48:06.504Z,0.75
2023-01-15T01:50:38.573Z,0.74
2023-01-15T01:53:13.973Z,0.76
2023-01-15T01:55:44.117Z,0.78
2023-01-15T01:58:15.454Z,0.79
2023-01-15T02:00:49.327Z,0.81
2023-01-15T02:03:22.353Z,0.80
2023-01-15T02:05:57.438Z,0.80
2023-01-15T02:08:28.454Z,0.82
2023-01-15T02:10:58.911Z,0.84
2023-01-15T02:13:42.088Z,0.85
2023-01-15T02:16:15.109Z,0.88
2023-01-15T02:19:11.320Z,0.88
2023-01-15T02:21:51.368Z,0.89
2023-01-15T02:24:38.090Z,0.89
2023-01-15T02:27:21.141Z,0.89
2023-01-15T02:30:17.386Z,0.89
2023-01-15T02:33:48.637Z,0.89
2023-01-15T02:36:24.355Z,0.90
2023-01-15T02:38:59.054Z,0.91
2023-01-15T02:41:39.530Z,0.92
2023-01-15T02:44:11.423Z,0.95
2023-01-15T02:46:44.462Z,0.95
2023-01-15T02:49:22.005Z,0.93
2023-01-15T02:52:09.296Z,0.91
2023-01-15T02:54:53.206Z,0.91
2023-01-15T02:57:26.987Z,0.92
2023-01-15T03:00:02.515Z,0.90
2023-01-15T03:02:57.015Z,0.90
2023-01-15T03:05:34.404Z,0.89
2023-01-15T03:08:09.096Z,0.89
2023-01-15T03:10:45.579Z,0.88
2023-01-15T03:13:45.372Z,0.89
2023-01-15T03:16:47.824Z,0.90
2023-01-15T03:19:24.527Z,0.92
2023-01-15T03:22:29.562Z,0.92
2023-01-15T03:25:10.879Z,0.93
2023-01-15T03:27:46.185Z,0.94
2023-01-15T03:30:23.056Z,0.95
2023-01-15T03:32:55.789Z,0.96
2023-01-15T03:35:46.600Z,0.97
2023-01-15T03:38:23.991Z,0.98
2023-01-15T03:41:20.379Z,0.99
2023-01-15T03:44:30.787Z,0.99
2023-01-15T03:47:22.453Z,1.00
2023-01-15T03:50:04.434Z,1.00
2023-01-15T03:53:04.562Z,1.02
2023-01-15T03:55:53.416Z,1.04
2023-01-15T03:58:39.113Z,1.06
2023-01-15T04:01:16.196Z,1.07
2023-01-15T04:03:48.926Z,1.06
2023-01-15T04:06:21.064Z,1.07
2023-01-15T04:08:51.963Z,1.09
2023-01-15T04:11:26.925Z,1.08
2023-01-15T04:14:05.747Z,1.08
2023-01-15T04:17:02.071Z,1.08
2023-01-15T04:19:32.253Z,1.09
2023-01-15T04:22:04.737Z,1.11
2023-01-15T04:24:34.601Z,1.12
2023-01-15T04:27:04.023Z,1.13
2023-01-15T04:29:33.441Z,1.14
2023-01-15T04:32:02.644Z,1.16
2023-01-15T04:34:35.450Z,1.15
2023-01-15T04:37:05.666Z,1.15
2023-01-15T04:39:36.455Z,1.14
2023-01-15T04:42:25.070Z,1.12
2023-01-15T04:44:55.268Z,1.12
2023-01-15T04:47:26.716Z,1.10
2023-01-15T04:49:56.863Z,1.10
2023-01-15T04:52:26.580Z,1.12
2023-01-15T04:54:56.759Z,1.13
2023-01-15T04:57:26.577Z,1.14
2023-01-15T04:59:56.626Z,1.11
2023-01-15T05:02:25.604Z,1.06
2023-01-15T05:04:55.699Z,1.03
2023-01-15T05:07:25.332Z,1.01
2023-01-15T05:09:55.774Z,1.00
2023-01-15T05:12:25.372Z,1.00
2023-01-15T05:14:54.789Z,1.04
2023-01-15T05:17:23.885Z,1.06
2023-01-15T05:19:53.269Z,1.07
2023-01-15T05:22:22.358Z,1.09
2023-01-15T05:24:51.349Z,1.09
2023-01-15T05:27:20.755Z,1.08
2023-01-15T05:29:50.063Z,1.07
2023-01-15T05:32:19.264Z,1.07
2023-01-15T05:34:48.385Z,1.06
2023-01-15T05:37:17.958Z,1.07
2023-01-15T05:39:47.266Z,1.06
2023-01-15T05:42:16.723Z,1.08
2023-01-15T05:44:45.550Z,1.09
2023-01-15T05:47:16.137Z,1.09
2023-01-15T05:49:45.067Z,1.10
2023-01-15T05:52:13.668Z,1.11
2023-01-15T05:54:42.655Z,1.12
2023-01-15T05:57:13.455Z,1.13
2023-01-15T05:59:42.850Z,1.14
2023-01-15T06:02:11.873Z,1.17
2023-01-15T06:04:40.552Z,1.19
2023-01-15T06:07:09.247Z,1.20
2023-01-15T06:09:37.912Z,1.21
2023-01-15T06:12:06.706Z,1.22
2023-01-15T06:14:35.614Z,1.24
2023-01-15T06:17:04.664Z,1.24
2023-01-15T06:19:33.729Z,1.24
2023-01-15T06:22:04.197Z,1.24
2023-01-15T06:24:32.984Z,1.25
2023-01-15T06:27:01.535Z,1.23
2023-01-15T06:29:30.406Z,1.23
2023-01-15T06:31:59.138Z,1.23
2023-01-15T06:34:27.687Z,1.24
2023-01-15T06:36:56.543Z,1.26
2023-01-15T06:39:25.414Z,1.28
2023-01-15T06:42:12.484Z,1.31
2023-01-15T06:44:59.678Z,1.35
2023-01-15T06:47:28.487Z,1.38
2023-01-15T06:49:58.758Z,1.41
2023-01-15T06:52:29.935Z,1.44
2023-01-15T06:54:58.531Z,1.46
2023-01-15T06:57:27.221Z,1.47
2023-01-15T06:59:55.979Z,1.50
2023-01-15T07:02:24.660Z,1.52
2023-01-15T07:04:53.490Z,1.54
2023-01-15T07:07:22.345Z,1.55
2023-01-15T07:09:51.482Z,1.56
2023-01-15T07:12:20.936Z,1.56
2023-01-15T07:14:49.530Z,1.57
2023-01-15T07:17:18.306Z,1.60
2023-01-15T07:19:47.411Z,1.61
2023-01-15T07:22:16.221Z,1.65
2023-01-15T07:24:48.172Z,1.68
2023-01-15T07:27:16.692Z,1.73
2023-01-15T07:29:45.222Z,1.78
2023-01-15T07:32:14.003Z,1.84
2023-01-15T07:34:42.554Z,1.91
2023-01-15T07:37:11.243Z,1.97
2023-01-15T07:39:39.965Z,2.02
2023-01-15T07:42:29.437Z,2.09
2023-01-15T07:45:16.548Z,2.16
2023-01-15T07:48:03.596Z,2.23
2023-01-15T07:50:32.309Z,2.28
2023-01-15T07:53:01.036Z,2.35
2023-01-15T07:55:29.724Z,2.42
2023-01-15T07:57:58.815Z,2.45
2023-01-15T08:00:27.425Z,2.49
2023-01-15T08:02:55.995Z,2.51
2023-01-15T08:05:24.464Z,2.52
2023-01-15T08:07:53.238Z,2.57
2023-01-15T08:10:22.043Z,2.62
2023-01-15T08:13:09.549Z,2.68
2023-01-15T08:15:44.247Z,2.75
2023-01-15T08:18:12.761Z,2.80
2023-01-15T08:20:41.814Z,2.86
2023-01-15T08:23:10.872Z,2.92
2023-01-15T08:25:39.572Z,2.96
2023-01-15T08:28:08.061Z,3.01
2023-01-15T08:30:36.831Z,3.08
2023-01-15T08:33:05.507Z,3.15
2023-01-15T08:35:34.707Z,3.21
2023-01-15T08:38:07.696Z,3.27
2023-01-15T08:40:57.069Z,3.32
2023-01-15T08:43:31.724Z,3.38
2023-01-15T08:46:02.795Z,3.44
2023-01-15T08:48:33.233Z,3.49
2023-01-15T08:51:07.019Z,3.52
2023-01-15T08:53:36.462Z,3.60
2023-01-15T08:56:12.173Z,3.64
2023-01-15T08:58:40.793Z,3.67
2023-01-15T09:01:12.493Z,3.71
2023-01-15T09:03:41.549Z,3.75
2023-01-15T09:06:14.117Z,3.81
2023-01-15T09:08:42.904Z,3.87
2023-01-15T09:11:14.088Z,3.89
2023-01-15T09:13:44.404Z,3.86
2023-01-15T09:16:13.412Z,3.82
2023-01-15T09:18:42.154Z,3.86
2023-01-15T09:21:11.145Z,3.84
2023-01-15T09:23:39.875Z,3.85
2023-01-15T09:39:05.056Z,4.29
2023-01-15T09:42:05.798Z,4.31
2023-01-15T09:44:50.373Z,4.33
2023-01-15T09:47:39.835Z,4.31
2023-01-15T09:50:23.415Z,4.26
2023-01-15T09:53:20.213Z,4.25
2023-01-15T09:55:51.357Z,4.23
2023-01-15T09:58:23.828Z,4.19
2023-01-15T10:00:52.771Z,4.15
2023-01-15T10:03:45.892Z,4.16
2023-01-15T10:06:48.776Z,4.18
2023-01-15T10:09:31.723Z,4.20
2023-01-15T10:12:31.303Z,4.20
2023-01-15T10:15:21.070Z,4.21
2023-01-15T10:17:54.210Z,4.22
2023-01-15T10:21:00.739Z,4.25
2023-01-15T10:23:48.074Z,4.27
2023-01-15T10:26:35.787Z,4.29
2023-01-15T10:29:23.013Z,4.35
2023-01-15T10:31:57.946Z,4.38
2023-01-15T10:34:29.290Z,4.35
2023-01-15T10:37:23.675Z,4.37
2023-01-15T10:40:30.255Z,4.41
2023-01-15T10:43:33.511Z,4.49
2023-01-15T10:46:19.207Z,4.57
2023-01-15T10:48:57.180Z,4.70
2023-01-15T10:51:45.790Z,4.82
2023-01-15T10:54:41.816Z,4.94
2023-01-15T10:57:36.423Z,5.05
2023-01-15T11:00:05.929Z,5.12
2023-01-15T11:02:40.093Z,5.15
2023-01-15T11:05:21.211Z,5.20
2023-01-15T11:08:24.746Z,5.29
2023-01-15T11:10:41.745Z,5.31
2023-01-15T11:13:45.422Z,5.36
2023-01-15T11:16:36.139Z,5.44
2023-01-15T11:19:25.395Z,5.64
2023-01-15T11:21:54.900Z,5.75
2023-01-15T11:24:23.403Z,5.87
2023-01-15T11:26:55.143Z,5.96
2023-01-15T11:29:34.570Z,5.98
2023-01-15T11:32:04.342Z,6.03
2023-01-15T11:34:32.963Z,6.00
2023-01-15T11:37:03.311Z,5.94
2023-01-15T11:39:32.668Z,5.98
2023-01-15T11:42:22.716Z,6.05
2023-01-15T11:45:12.153Z,6.08
2023-01-15T11:48:10.231Z,6.06
2023-01-15T11:50:52.947Z,6.08
2023-01-15T11:53:34.669Z,6.07
2023-01-15T11:56:09.157Z,6.17
2023-01-15T11:58:58.365Z,6.23
2023-01-15T12:01:35.582Z,6.29
2023-01-15T12:04:08.523Z,6.46
2023-01-15T12:06:41.284Z,7.37
2023-01-15T12:09:31.356Z,8.30
2023-01-15T12:12:23.902Z,8.72
2023-01-15T12:15:06.367Z,9.35
2023-01-15T12:17:44.007Z,9.73
2023-01-15T12:20:54.492Z,9.90
2023-01-15T12:23:35.344Z,10.18
2023-01-15T12:26:18.056Z,10.16
2023-01-15T12:29:21.422Z,10.66
2023-01-15T12:31:55.671Z,11.32
2023-01-15T12:34:30.341Z,11.25
2023-01-15T12:37:22.844Z,11.12
2023-01-15T12:40:28.631Z,11.95
2023-01-15T12:43:16.332Z,12.69
2023-01-15T12:45:49.926Z,13.36
2023-01-15T12:48:35.405Z,13.92
2023-01-15T12:51:06.511Z,15.06
2023-01-15T12:53:53.210Z,15.80
2023-01-15T12:56:33.594Z,16.09
2023-01-15T12:59:13.572Z,16.35
2023-01-15T13:02:13.007Z,16.49
2023-01-15T13:04:44.730Z,16.45
2023-01-15T13:07:40.098Z,16.37
2023-01-15T13:10:29.615Z,16.00
2023-01-15T13:13:13.762Z,16.51
2023-01-15T13:16:10.040Z,16.65
2023-01-15T13:18:38.808Z,16.71
2023-01-15T13:21:16.621Z,17.11
2023-01-15T13:23:57.008Z,17.06
2023-01-15T13:26:53.221Z,17.15
2023-01-15T13:29:40.148Z,17.20
2023-01-15T13:32:30.037Z,17.01
2023-01-15T13:35:05.119Z,16.60
2023-01-15T13:37:55.190Z,16.77
2023-01-15T13:40:39.341Z,17.12
2023-01-15T13:43:10.145Z,17.19
2023-01-15T13:45:41.338Z,16.78
2023-01-15T13:48:20.701Z,16.77
2023-01-15T13:50:54.969Z,16.59
2023-01-15T13:53:26.528Z,16.78
2023-01-15T13:56:08.241Z,16.87
2023-01-15T13:58:54.526Z,16.83
2023-01-15T14:01:31.072Z,16.83
2023-01-15T14:04:10.065Z,16.32
2023-01-15T14:06:43.724Z,16.25
2023-01-15T14:09:30.040Z,15.89
2023-01-15T14:12:18.573Z,15.73
2023-01-15T14:15:08.135Z,15.32
2023-01-15T14:18:04.580Z,15.26
2023-01-15T14:20:55.329Z,15.38
2023-01-15T14:23:53.875Z,15.30
2023-01-15T14:26:55.927Z,15.09
2023-01-15T14:29:30.860Z,15.05
2023-01-15T14:31:59.704Z,14.87
2023-01-15T14:34:34.672Z,14.63
2023-01-15T14:37:24.948Z,14.32
2023-01-15T14:39:58.856Z,13.66
2023-01-15T14:42:52.553Z,13.24
2023-01-15T14:45:30.901Z,12.75
2023-01-15T14:48:02.325Z,11.82
2023-01-15T14:50:44.117Z,10.84
2023-01-15T14:53:15.246Z,9.77
2023-01-15T14:55:58.581Z,9.10
2023-01-15T14:58:41.605Z,8.17
2023-01-15T15:01:35.831Z,7.43
2023-01-15T15:04:41.027Z,6.68
2023-01-15T15:07:15.643Z,6.03
2023-01-15T15:09:48.051Z,5.42
2023-01-15T15:12:38.217Z,4.91
2023-01-15T15:15:22.054Z,4.45
2023-01-15T15:18:09.889Z,4.08
2023-01-15T15:20:53.625Z,3.73
2023-01-15T15:23:26.103Z,3.45
2023-01-15T15:26:03.978Z,3.22
2023-01-15T15:28:32.591Z,3.03
2023-01-15T15:31:02.007Z,2.88
2023-01-15T15:33:39.382Z,2.72
2023-01-15T15:36:09.606Z,2.56
2023-01-15T15:38:42.183Z,2.44
2023-01-15T15:41:13.113Z,2.36
2023-01-15T15:44:16.415Z,2.31
2023-01-15T15:47:09.875Z,2.27
2023-01-15T15:49:40.488Z,2.20
2023-01-15T15:52:23.390Z,2.12
2023-01-15T15:55:06.073Z,2.06
2023-01-15T15:57:36.064Z,1.99
2023-01-15T16:00:05.256Z,1.90
2023-01-15T16:02:39.029Z,1.83
2023-01-15T16:05:31.801Z,1.76
2023-01-15T16:08:18.137Z,1.71
2023-01-15T16:10:54.060Z,1.63
2023-01-15T16:13:27.883Z,1.56
2023-01-15T16:15:58.585Z,1.47
2023-01-15T16:18:41.142Z,1.39
2023-01-15T16:21:12.124Z,1.30
2023-01-15T16:23:42.884Z,1.22
2023-01-15T16:26:22.171Z,1.15
2023-01-15T16:28:55.409Z,1.05
2023-01-15T16:31:24.540Z,0.95
2023-01-15T16:33:58.214Z,0.85
2023-01-15T16:36:28.434Z,0.73
2023-01-15T16:38:57.326Z,0.63
2023-01-15T16:41:35.436Z,0.56
2023-01-15T16:44:06.587Z,0.52
2023-01-15T16:46:39.488Z,0.50
2023-01-15T16:49:23.117Z,0.49
2023-01-15T16:51:53.991Z,0.44
2023-01-15T16:54:31.247Z,0.40
2023-01-15T16:57:02.977Z,0.39
2023-01-15T16:59:32.166Z,0.41
2023-01-15T17:02:16.952Z,0.42
2023-01-15T17:04:46.697Z,0.39
2023-01-15T17:07:18.400Z,0.35
2023-01-15T17:09:51.797Z,0.29
2023-01-15T17:12:38.613Z,0.19
2023-01-15T17:15:20.134Z,0.12
2023-01-15T17:17:53.286Z,0.05
2023-01-15T17:20:28.086Z,-0.03
2023-01-15T17:22:57.306Z,-0.13
2023-01-15T17:25:31.334Z,-0.21
2023-01-15T17:28:01.238Z,-0.26
2023-01-15T17:30:32.243Z,-0.30
2023-01-15T17:33:06.595Z,-0.33
2023-01-15T17:35:37.450Z,-0.33
2023-01-15T17:38:07.741Z,-0.32
2023-01-15T17:40:36.336Z,-0.32
2023-01-15T17:43:05.644Z,-0.30
2023-01-15T17:45:34.715Z,-0.25
2023-01-15T17:48:04.224Z,-0.23
2023-01-15T17:50:32.717Z,-0.26
2023-01-15T17:53:02.118Z,-0.30
2023-01-15T17:55:49.733Z,-0.33
2023-01-15T17:58:36.867Z,-0.36
2023-01-15T18:01:34.198Z,-0.39
2023-01-15T18:04:22.057Z,-0.48
2023-01-15T18:06:53.964Z,-0.58
2023-01-15T18:09:24.341Z,-0.66
2023-01-15T18:11:53.242Z,-0.73
2023-01-15T18:14:22.048Z,-0.81
2023-01-15T18:16:50.605Z,-0.90
2023-01-15T18:19:19.300Z,-0.97
2023-01-15T18:21:48.073Z,-1.04
2023-01-15T18:24:17.485Z,-1.11
2023-01-15T18:26:46.164Z,-1.14
2023-01-15T18:29:14.863Z,-1.13
2023-01-15T18:31:43.410Z,-1.14
2023-01-15T18:34:12.022Z,-1.11
2023-01-15T18:36:41.532Z,-1.12
2023-01-15T18:39:13.179Z,-1.11
2023-01-15T18:41:41.756Z,-1.13
2023-01-15T18:44:31.744Z,-1.14
2023-01-15T18:47:03.702Z,-1.15
2023-01-15T18:49:32.596Z,-1.17
2023-01-15T18:52:19.714Z,-1.19
2023-01-15T18:54:48.502Z,-1.19
2023-01-15T18:57:17.190Z,-1.19
2023-01-15T18:59:47.817Z,-1.18
2023-01-15T19:02:17.654Z,-1.17
2023-01-15T19:04:48.501Z,-1.18
2023-01-15T19:07:17.563Z,-1.21
2023-01-15T19:09:46.349Z,-1.23
2023-01-15T19:12:17.328Z,-1.24
2023-01-15T19:15:05.230Z,-1.24
2023-01-15T19:17:52.350Z,-1.25
2023-01-15T19:20:21.234Z,-1.25
2023-01-15T19:22:59.288Z,-1.26
2023-01-15T19:25:29.517Z,-1.29
2023-01-15T19:27:58.765Z,-1.32
2023-01-15T19:30:28.676Z,-1.35
2023-01-15T19:32:57.355Z,-1.40
2023-01-15T19:35:26.045Z,-1.42
2023-01-15T19:37:55.452Z,-1.43
2023-01-15T19:40:25.056Z,-1.45
2023-01-15T19:43:13.642Z,-1.46
2023-01-15T19:46:03.792Z,-1.46
2023-01-15T19:48:52.658Z,-1.46
2023-01-15T19:51:21.544Z,-1.48
2023-01-15T19:53:50.249Z,-1.46
2023-01-15T19:56:19.229Z,-1.41
2023-01-15T19:58:47.706Z,-1.38
2023-01-15T20:01:17.804Z,-1.38
2023-01-15T20:03:46.811Z,-1.40
2023-01-15T20:06:15.393Z,-1.45
2023-01-15T20:08:43.977Z,-1.50
2023-01-15T20:11:12.569Z,-1.52
2023-01-15T20:13:52.199Z,-1.53
2023-01-15T20:16:22.838Z,-1.56
2023-01-15T20:18:53.142Z,-1.58
2023-01-15T20:21:21.753Z,-1.60
2023-01-15T20:23:50.322Z,-1.61
2023-01-15T20:26:19.010Z,-1.64
2023-01-15T20:28:48.008Z,-1.66
2023-01-15T20:31:20.383Z,-1.68
2023-01-15T20:33:49.079Z,-1.71
2023-01-15T20:36:17.659Z,-1.72
2023-01-15T20:38:46.747Z,-1.76
2023-01-15T20:41:34.165Z,-1.80
2023-01-15T20:44:21.384Z,-1.85
2023-01-15T20:46:50.082Z,-1.90
2023-01-15T20:49:28.489Z,-1.93
2023-01-15T20:51:58.133Z,-1.97
2023-01-15T20:54:27.617Z,-2.05
2023-01-15T20:56:56.186Z,-2.11
2023-01-15T20:59:24.763Z,-2.18
2023-01-15T21:01:54.986Z,-2.24
2023-01-15T21:04:23.952Z,-2.29
2023-01-15T21:06:52.529Z,-2.34
2023-01-15T21:09:20.934Z,-2.37
2023-01-15T21:11:49.510Z,-2.40
2023-01-15T21:14:18.100Z,-2.43
2023-01-15T21:16:46.933Z,-2.46
2023-01-15T21:19:16.022Z,-2.48
2023-01-15T21:21:44.781Z,-2.52
2023-01-15T21:24:13.570Z,-2.52
2023-01-15T21:26:42.249Z,-2.53
2023-01-15T21:29:10.830Z,-2.55
2023-01-15T21:31:40.076Z,-2.57
2023-01-15T21:34:09.117Z,-2.57
2023-01-15T21:36:38.220Z,-2.59
2023-01-15T21:39:06.807Z,-2.61
2023-01-15T21:41:54.635Z,-2.63
2023-01-15T21:44:32.555Z,-2.65
2023-01-15T21:47:12.953Z,-2.68
2023-01-15T21:49:42.507Z,-2.72
2023-01-15T21:52:18.877Z,-2.75
2023-01-15T21:54:48.592Z,-2.79
2023-01-15T21:57:19.325Z,-2.83
2023-01-15T21:59:47.899Z,-2.85
2023-01-15T22:02:20.553Z,-2.86
2023-01-15T22:04:49.572Z,-2.87
2023-01-15T22:07:19.284Z,-2.94
2023-01-15T22:09:48.291Z,-2.99
2023-01-15T22:12:17.474Z,-3.04
2023-01-15T22:14:46.361Z,-3.11
2023-01-15T22:17:15.049Z,-3.16
2023-01-15T22:19:44.053Z,-3.22
2023-01-15T22:22:12.828Z,-3.28
2023-01-15T22:24:41.712Z,-3.33
2023-01-15T22:27:15.325Z,-3.36
2023-01-15T22:29:44.317Z,-3.38
2023-01-15T22:32:14.740Z,-3.37
2023-01-15T22:34:43.840Z,-3.39
2023-01-15T22:37:15.058Z,-3.38
2023-01-15T22:39:43.665Z,-3.37
2023-01-15T22:42:25.549Z,-3.37
2023-01-15T22:44:56.388Z,-3.36
2023-01-15T22:47:25.178Z,-3.36
2023-01-15T22:49:54.090Z,-3.36
2023-01-15T22:52:25.652Z,-3.35
2023-01-15T22:54:54.722Z,-3.34
2023-01-15T22:57:23.922Z,-3.34
2023-01-15T22:59:52.822Z,-3.34
2023-01-15T23:02:41.581Z,-3.33
2023-01-15T23:05:12.062Z,-3.33
2023-01-15T23:07:41.705Z,-3.31
2023-01-15T23:10:12.572Z,-3.29
2023-01-15T23:12:42.673Z,-3.26
2023-01-15T23:15:13.652Z,-3.25
2023-01-15T23:17:44.430Z,-3.25
2023-01-15T23:20:14.654Z,-3.26
2023-01-15T23:22:44.423Z,-3.28
2023-01-15T23:25:13.567Z,-3.31
2023-01-15T23:27:42.964Z,-3.34
2023-01-15T23:30:12.779Z,-3.34
2023-01-15T23:32:42.662Z,-3.34
2023-01-15T23:35:12.108Z,-3.37
2023-01-15T23:37:40.903Z,-3.40
2023-01-15T23:40:11.455Z,-3.42
2023-01-15T23:42:59.554Z,-3.44
2023-01-15T23:45:47.283Z,-3.45
2023-01-15T23:48:16.991Z,-3.46
2023-01-15T23:50:45.682Z,-3.43
2023-01-15T23:53:14.985Z,-3.40
2023-01-15T23:55:43.871Z,-3.38
2023-01-15T23:58:13.299Z,-3.35
